createdAt,value
2023-02-24T00:00:38.623Z,49.56
2023-02-24T00:03:11.393Z,49.40
2023-02-24T00:05:39.837Z,49.57
2023-02-24T00:08:06.933Z,49.29
2023-02-24T00:10:34.147Z,49.43
2023-02-24T00:13:01.008Z,49.18
2023-02-24T00:15:30.767Z,49.54
2023-02-24T00:17:58.483Z,49.47
2023-02-24T00:20:27.524Z,49.40
2023-02-24T00:22:54.181Z,49.46
2023-02-24T00:25:22.382Z,49.18
2023-02-24T00:27:49.026Z,49.49
2023-02-24T00:30:16.385Z,49.61
2023-02-24T00:32:43.173Z,49.41
2023-02-24T00:35:10.089Z,49.44
2023-02-24T00:37:36.740Z,49.33
2023-02-24T00:40:11.185Z,49.35
2023-02-24T00:42:39.907Z,49.47
2023-02-24T00:45:10.379Z,49.51
2023-02-24T00:47:39.528Z,49.45
2023-02-24T00:50:07.168Z,49.44
2023-02-24T00:52:33.931Z,49.20
2023-02-24T00:55:00.942Z,49.53
2023-02-24T00:57:27.709Z,49.57
2023-02-24T00:59:54.594Z,49.73
2023-02-24T01:02:21.536Z,49.46
2023-02-24T01:04:50.052Z,49.52
2023-02-24T01:07:16.787Z,49.50
2023-02-24T01:09:50.219Z,49.57
2023-02-24T01:12:35.548Z,49.56
2023-02-24T01:15:03.173Z,49.51
2023-02-24T01:17:29.782Z,49.27
2023-02-24T01:20:00.384Z,49.63
2023-02-24T01:22:27.408Z,49.67
2023-02-24T01:24:54.105Z,49.47
2023-02-24T01:27:20.717Z,49.55
2023-02-24T01:29:48.008Z,49.40
2023-02-24T01:32:20.113Z,49.49
2023-02-24T01:34:47.174Z,49.53
2023-02-24T01:37:16.602Z,49.41
2023-02-24T01:39:44.526Z,49.67
2023-02-24T01:42:19.873Z,49.63
2023-02-24T01:44:48.444Z,49.48
2023-02-24T01:47:20.877Z,49.64
2023-02-24T01:49:49.119Z,49.46
2023-02-24T01:52:19.262Z,49.54
2023-02-24T01:55:01.067Z,49.16
2023-02-24T01:57:29.658Z,49.46
2023-02-24T02:00:02.183Z,49.72
2023-02-24T02:02:29.034Z,49.72
2023-02-24T02:05:01.952Z,49.29
2023-02-24T02:07:28.936Z,49.59
2023-02-24T02:09:55.799Z,49.71
2023-02-24T02:12:22.876Z,49.26
2023-02-24T02:14:52.506Z,49.53
2023-02-24T02:18:03.277Z,49.51
2023-02-24T02:20:56.711Z,49.54
2023-02-24T02:23:35.411Z,49.44
2023-02-24T02:26:18.959Z,49.42
2023-02-24T02:29:12.927Z,49.37
2023-02-24T02:31:55.488Z,49.38
2023-02-24T02:34:28.881Z,49.60
2023-02-24T02:37:05.916Z,49.12
2023-02-24T02:39:38.327Z,49.46
2023-02-24T02:42:30.583Z,49.40
2023-02-24T02:45:14.812Z,49.67
2023-02-24T02:47:54.092Z,49.37
2023-02-24T02:50:27.153Z,49.05
2023-02-24T02:53:03.025Z,49.45
2023-02-24T02:55:38.793Z,49.50
2023-02-24T02:58:09.247Z,49.41
2023-02-24T03:00:42.100Z,49.40
2023-02-24T03:03:13.702Z,49.37
2023-02-24T03:05:47.097Z,49.34
2023-02-24T03:08:19.005Z,49.46
2023-02-24T03:10:51.176Z,49.26
2023-02-24T03:13:23.554Z,49.52
2023-02-24T03:15:51.597Z,49.49
2023-02-24T03:18:29.064Z,49.50
2023-02-24T03:21:08.057Z,49.18
2023-02-24T03:23:40.772Z,49.53
2023-02-24T03:26:23.494Z,48.97
2023-02-24T03:29:12.219Z,49.13
2023-02-24T03:31:43.839Z,49.49
2023-02-24T03:34:19.335Z,49.23
2023-02-24T03:36:47.163Z,49.00
2023-02-24T03:39:15.858Z,49.18
2023-02-24T03:41:57.892Z,49.19
2023-02-24T03:44:28.930Z,49.18
2023-02-24T03:46:56.034Z,49.39
2023-02-24T03:49:22.976Z,49.35
2023-02-24T03:52:03.194Z,49.35
2023-02-24T03:54:43.078Z,49.30
2023-02-24T03:57:36.691Z,49.28
2023-02-24T04:00:22.778Z,49.20
2023-02-24T04:02:51.115Z,49.44
2023-02-24T04:05:22.142Z,49.17
2023-02-24T04:08:05.859Z,49.22
2023-02-24T04:10:53.178Z,49.25
2023-02-24T04:13:38.877Z,49.40
2023-02-24T04:16:24.354Z,49.29
2023-02-24T04:18:51.181Z,49.23
2023-02-24T04:21:18.241Z,49.07
2023-02-24T04:23:45.041Z,49.22
2023-02-24T04:26:12.797Z,49.26
2023-02-24T04:28:41.067Z,49.23
2023-02-24T04:31:10.777Z,49.35
2023-02-24T04:33:40.029Z,49.18
2023-02-24T04:36:09.210Z,49.33
2023-02-24T04:38:36.335Z,49.10
2023-02-24T04:41:03.113Z,49.24
2023-02-24T04:43:29.752Z,49.31
2023-02-24T04:45:56.380Z,49.25
2023-02-24T04:48:23.035Z,49.24
2023-02-24T04:50:55.216Z,49.59
2023-02-24T04:53:27.180Z,49.67
2023-02-24T04:55:54.248Z,49.67
2023-02-24T04:58:22.614Z,49.46
2023-02-24T05:00:52.739Z,49.38
2023-02-24T05:03:20.121Z,49.33
2023-02-24T05:05:52.103Z,49.26
2023-02-24T05:08:19.015Z,49.21
2023-02-24T05:10:49.433Z,49.26
2023-02-24T05:13:17.588Z,49.27
2023-02-24T05:15:44.730Z,49.36
2023-02-24T05:18:14.857Z,49.50
2023-02-24T05:21:02.541Z,49.08
2023-02-24T05:23:34.273Z,49.18
2023-02-24T05:26:01.804Z,49.19
2023-02-24T05:28:31.683Z,49.18
2023-02-24T05:31:14.876Z,49.40
2023-02-24T05:33:42.931Z,49.36
2023-02-24T05:36:18.080Z,49.40
2023-02-24T05:38:45.721Z,49.17
2023-02-24T05:41:17.136Z,49.15
2023-02-24T06:26:50.266Z,47.40
2023-02-24T06:29:17.749Z,47.29
2023-02-24T06:31:44.635Z,47.22
2023-02-24T06:34:13.247Z,47.55
2023-02-24T06:36:41.681Z,47.61
2023-02-24T06:41:52.887Z,48.10
2023-02-24T06:55:29.846Z,49.71
2023-02-24T06:58:05.610Z,49.49
2023-02-24T07:00:42.112Z,49.56
2023-02-24T07:03:16.649Z,49.60
2023-02-24T07:05:54.519Z,49.28
2023-02-24T07:08:23.081Z,48.78
2023-02-24T07:10:56.832Z,48.45
2023-02-24T07:13:27.574Z,48.55
2023-02-24T07:15:54.971Z,48.74
2023-02-24T07:18:24.647Z,48.48
2023-02-24T07:20:52.228Z,48.59
2023-02-24T07:23:18.971Z,48.72
2023-02-24T07:25:46.487Z,48.50
2023-02-24T07:28:14.065Z,48.76
2023-02-24T07:30:41.393Z,48.42
2023-02-24T07:33:08.419Z,48.82
2023-02-24T10:47:33.325Z,49.66
2023-02-24T10:50:05.467Z,49.63
2023-02-24T10:52:37.591Z,49.73
2023-02-24T10:55:28.170Z,49.67
2023-02-24T10:58:08.146Z,49.81
2023-02-24T11:01:03.020Z,49.86
2023-02-24T11:03:38.979Z,49.57
2023-02-24T11:06:06.176Z,49.67
2023-02-24T11:08:37.047Z,49.72
2023-02-24T11:14:11.808Z,49.59
2023-02-24T11:17:12.275Z,49.93
2023-02-24T11:20:17.636Z,50.02
2023-02-24T11:22:44.372Z,49.93
2023-02-24T11:25:41.015Z,50.19
2023-02-24T12:16:46.125Z,49.97
2023-02-24T15:18:51.214Z,50.38
2023-02-24T15:21:29.491Z,50.28
2023-02-24T15:24:19.236Z,50.55
2023-02-24T15:26:56.975Z,50.44
2023-02-24T15:29:28.198Z,50.43
2023-02-24T15:34:31.644Z,50.53
2023-02-24T15:37:04.510Z,50.41
2023-02-24T15:39:32.271Z,50.43
2023-02-24T15:47:24.688Z,49.98
2023-02-24T15:49:51.473Z,50.21
2023-02-24T15:52:23.548Z,50.55
2023-02-24T15:54:50.401Z,49.95
2023-02-24T15:57:17.437Z,50.21
2023-02-24T15:59:45.024Z,50.39
2023-02-24T16:02:18.442Z,50.26
2023-02-24T16:04:45.575Z,50.31
2023-02-24T16:07:21.533Z,50.27
2023-02-24T16:09:49.277Z,50.10
2023-02-24T16:12:22.003Z,50.29
2023-02-24T16:14:56.028Z,50.26
2023-02-24T16:17:36.664Z,50.24
2023-02-24T16:20:08.916Z,49.97
2023-02-24T16:22:36.783Z,50.44
2023-02-24T16:25:04.207Z,50.17
2023-02-24T16:27:31.557Z,50.26
2023-02-24T16:29:58.557Z,50.23
2023-02-24T16:32:27.187Z,50.44
2023-02-24T16:34:54.150Z,49.85
2023-02-24T16:37:26.284Z,50.04
2023-02-24T16:39:53.054Z,50.23
2023-02-24T16:42:21.760Z,50.43
2023-02-24T16:44:49.020Z,50.45
2023-02-24T16:47:18.679Z,50.30
2023-02-24T16:49:45.371Z,50.06
2023-02-24T16:52:12.826Z,50.08
2023-02-24T16:54:39.802Z,50.20
2023-02-24T16:57:06.353Z,50.79
2023-02-24T16:59:33.525Z,50.29
2023-02-24T17:02:02.157Z,50.01
2023-02-24T17:04:29.006Z,50.20
2023-02-24T17:06:55.870Z,50.07
2023-02-24T17:09:22.787Z,50.24
2023-02-24T17:11:50.035Z,50.21
2023-02-24T17:14:18.514Z,50.01
2023-02-24T17:16:45.640Z,50.14
2023-02-24T17:19:16.311Z,50.24
2023-02-24T17:21:43.696Z,50.39
2023-02-24T17:24:16.142Z,50.25
2023-02-24T17:29:37.484Z,50.50
2023-02-24T17:32:06.170Z,50.20
2023-02-24T17:34:33.331Z,50.32
2023-02-24T17:36:59.990Z,50.24
2023-02-24T17:39:26.738Z,50.38
2023-02-24T17:41:53.260Z,50.32
2023-02-24T17:44:19.849Z,50.82
2023-02-24T17:46:46.476Z,50.76
2023-02-24T17:49:13.056Z,50.36
2023-02-24T17:51:39.640Z,50.39
2023-02-24T17:54:06.906Z,50.64
2023-02-24T17:56:33.943Z,50.37
2023-02-24T17:59:01.126Z,50.51
2023-02-24T18:01:27.977Z,50.33
2023-02-24T18:03:57.539Z,50.29
2023-02-24T18:06:24.726Z,50.34
2023-02-24T18:08:51.924Z,50.44
2023-02-24T18:11:19.312Z,50.58
2023-02-24T18:13:47.448Z,50.29
2023-02-24T18:16:14.708Z,50.49
2023-02-24T18:18:42.508Z,50.20
2023-02-24T18:21:09.418Z,50.17
2023-02-24T18:23:36.491Z,50.11
2023-02-24T18:26:04.407Z,50.26
2023-02-24T18:28:31.293Z,50.53
2023-02-24T18:30:58.188Z,50.49
2023-02-24T18:33:24.998Z,50.39
2023-02-24T18:36:00.991Z,50.45
2023-02-24T18:38:27.789Z,50.61
2023-02-24T18:41:01.900Z,50.94
2023-02-24T18:43:29.058Z,50.62
2023-02-24T18:46:03.029Z,50.63
2023-02-24T18:48:29.833Z,50.75
2023-02-24T18:50:56.895Z,50.63
2023-02-24T18:53:23.851Z,50.35
2023-02-24T18:55:50.425Z,50.61
2023-02-24T18:58:17.010Z,50.49
2023-02-24T19:00:45.110Z,50.58
2023-02-24T19:03:11.742Z,50.66
2023-02-24T19:05:39.143Z,50.52
2023-02-24T19:08:05.956Z,50.64
2023-02-24T19:10:32.527Z,50.71
2023-02-24T19:12:59.107Z,50.16
2023-02-24T19:15:27.765Z,50.34
2023-02-24T19:17:54.414Z,50.67
2023-02-24T19:20:21.065Z,50.59
2023-02-24T19:22:49.197Z,50.75
2023-02-24T19:25:17.400Z,50.49
2023-02-24T19:27:44.156Z,50.79
2023-02-24T19:30:11.113Z,50.67
2023-02-24T19:32:37.823Z,50.54
2023-02-24T19:35:04.706Z,50.79
2023-02-24T19:37:31.228Z,50.92
2023-02-24T19:39:57.884Z,50.62
2023-02-24T19:42:24.516Z,50.54
2023-02-24T19:44:51.348Z,50.62
2023-02-24T19:47:18.408Z,50.35
2023-02-24T19:49:45.151Z,50.62
2023-02-24T19:52:11.789Z,50.26
2023-02-24T19:54:38.354Z,50.52
2023-02-24T19:57:04.915Z,50.29
2023-02-24T19:59:31.520Z,50.35
2023-02-24T20:01:58.129Z,50.42
2023-02-24T20:04:24.794Z,50.50
2023-02-24T20:06:51.526Z,50.68
2023-02-24T20:09:21.508Z,50.54
2023-02-24T20:11:49.207Z,50.62
2023-02-24T20:14:16.902Z,50.75
2023-02-24T20:16:43.778Z,50.48
2023-02-24T20:19:11.497Z,50.72
2023-02-24T20:21:41.341Z,50.47
2023-02-24T20:24:10.124Z,50.78
2023-02-24T20:26:38.168Z,50.63
2023-02-24T20:29:04.769Z,50.51
2023-02-24T20:31:31.370Z,50.94
2023-02-24T20:33:57.907Z,50.53
2023-02-24T20:36:26.092Z,50.88
2023-02-24T20:38:53.016Z,50.91
2023-02-24T20:41:20.627Z,50.75
2023-02-24T20:43:47.602Z,50.85
2023-02-24T20:46:24.120Z,50.69
2023-02-24T20:48:51.938Z,50.82
2023-02-24T20:51:18.602Z,50.79
2023-02-24T20:53:56.778Z,50.72
2023-02-24T20:56:25.198Z,50.59
2023-02-24T20:58:53.593Z,50.70
2023-02-24T21:01:20.556Z,50.77
2023-02-24T21:03:47.443Z,50.65
2023-02-24T21:06:15.495Z,50.77
2023-02-24T21:08:43.621Z,50.64
2023-02-24T21:11:11.208Z,50.64
2023-02-24T21:13:42.643Z,50.82
2023-02-24T21:16:09.923Z,50.35
2023-02-24T21:18:38.204Z,50.62
2023-02-24T21:21:05.723Z,50.95
2023-02-24T21:23:32.752Z,50.74
2023-02-24T21:25:59.404Z,50.37
2023-02-24T21:28:25.975Z,50.58
2023-02-24T21:30:52.580Z,50.61
2023-02-24T21:33:19.191Z,50.59
2023-02-24T21:35:47.276Z,50.59
2023-02-24T21:38:13.814Z,50.74
2023-02-24T21:40:40.685Z,50.59
2023-02-24T21:43:07.346Z,50.13
2023-02-24T21:45:34.002Z,50.51
2023-02-24T21:48:00.550Z,50.68
2023-02-24T21:50:27.199Z,50.38
2023-02-24T21:52:55.685Z,50.73
2023-02-24T21:55:23.413Z,50.73
2023-02-24T21:57:49.982Z,50.72
2023-02-24T22:00:19.956Z,50.80
2023-02-24T22:02:54.396Z,50.86
2023-02-24T22:05:22.329Z,50.89
2023-02-24T22:07:49.157Z,50.75
2023-02-24T22:10:17.781Z,50.79
2023-02-24T22:12:44.430Z,51.00
2023-02-24T22:15:11.429Z,50.76
2023-02-24T22:17:38.717Z,50.76
2023-02-24T22:20:10.105Z,50.85
2023-02-24T22:22:37.499Z,50.95
2023-02-24T22:25:04.964Z,50.80
2023-02-24T22:27:31.487Z,50.87
2023-02-24T22:29:58.043Z,50.61
2023-02-24T22:32:24.797Z,50.61
2023-02-24T22:34:51.354Z,50.73
2023-02-24T22:37:17.982Z,50.83
2023-02-24T22:39:44.639Z,50.95
2023-02-24T22:42:11.646Z,50.84
2023-02-24T22:44:38.266Z,50.79
2023-02-24T22:47:04.974Z,50.78
2023-02-24T22:49:31.580Z,50.71
2023-02-24T22:51:58.245Z,51.33
2023-02-24T22:54:24.958Z,50.79
2023-02-24T22:56:51.531Z,50.96
2023-02-24T22:59:18.237Z,50.78
2023-02-24T23:01:44.853Z,50.73
2023-02-24T23:04:14.763Z,50.61
2023-02-24T23:06:41.848Z,50.78
2023-02-24T23:09:09.044Z,50.67
2023-02-24T23:11:41.207Z,50.84
2023-02-24T23:14:10.945Z,50.79
2023-02-24T23:16:37.652Z,50.78
2023-02-24T23:19:10.636Z,50.90
2023-02-24T23:21:41.547Z,50.70
2023-02-24T23:24:09.018Z,50.84
2023-02-24T23:26:38.727Z,50.84
2023-02-24T23:29:06.177Z,51.16
2023-02-24T23:31:32.850Z,50.77
2023-02-24T23:33:59.557Z,50.79
2023-02-24T23:36:26.347Z,50.23
2023-02-24T23:38:52.986Z,50.73
2023-02-24T23:41:19.665Z,50.82
2023-02-24T23:43:46.335Z,50.80
2023-02-24T23:46:13.101Z,50.99
2023-02-24T23:48:39.779Z,50.90
2023-02-24T23:51:07.673Z,50.94
2023-02-24T23:53:41.562Z,50.71
2023-02-24T23:56:09.540Z,50.80
2023-02-24T23:58:37.270Z,50.79
